createdAt,value
2022-08-30T00:00:49.300Z,9.38
2022-08-30T00:10:51.476Z,10.52
2022-08-30T00:20:56.135Z,7.68
2022-08-30T00:31:01.652Z,9.85
2022-08-30T00:41:05.349Z,8.00
2022-08-30T00:51:14.051Z,9.45
2022-08-30T01:01:16.678Z,10.48
2022-08-30T01:11:21.425Z,10.75
2022-08-30T01:21:35.679Z,8.60
2022-08-30T01:31:42.783Z,9.30
2022-08-30T01:41:49.335Z,9.50
2022-08-30T01:52:00.702Z,11.10
2022-08-30T02:02:06.700Z,9.38
2022-08-30T02:12:09.106Z,9.38
2022-08-30T02:22:13.159Z,11.35
2022-08-30T02:32:25.847Z,12.20
2022-08-30T02:42:27.946Z,11.38
2022-08-30T02:52:33.076Z,10.13
2022-08-30T03:02:37.579Z,11.18
2022-08-30T03:12:39.647Z,12.85
2022-08-30T03:22:44.021Z,12.93
2022-08-30T03:32:48.300Z,8.27
2022-08-30T03:42:52.875Z,8.85
2022-08-30T03:52:56.807Z,11.60
2022-08-30T04:03:03.348Z,12.52
2022-08-30T04:13:08.033Z,11.60
2022-08-30T04:23:12.650Z,7.93
2022-08-30T04:33:16.058Z,8.57
2022-08-30T04:43:18.444Z,10.27
2022-08-30T04:53:23.562Z,11.68
2022-08-30T05:03:25.669Z,7.75
2022-08-30T05:13:35.226Z,8.73
2022-08-30T05:23:39.789Z,7.93
2022-08-30T05:33:46.297Z,9.63
2022-08-30T05:43:56.022Z,8.27
2022-08-30T05:54:01.414Z,9.65
2022-08-30T06:04:12.220Z,8.95
2022-08-30T06:14:15.103Z,4.97
2022-08-30T06:24:24.878Z,7.63
2022-08-30T06:34:40.423Z,4.68
2022-08-30T06:44:45.667Z,6.50
2022-08-30T06:54:48.195Z,4.05
2022-08-30T07:04:50.583Z,4.75
2022-08-30T07:14:54.984Z,2.78
2022-08-30T07:24:59.966Z,4.75
2022-08-30T07:35:05.036Z,2.85
2022-08-30T07:45:10.426Z,3.63
2022-08-30T07:55:16.213Z,2.33
2022-08-30T08:05:22.049Z,4.35
2022-08-30T08:15:30.376Z,3.30
2022-08-30T08:25:39.719Z,3.65
2022-08-30T08:35:44.206Z,3.72
2022-08-30T08:45:58.323Z,2.90
2022-08-30T08:56:00.398Z,2.72
2022-08-30T09:06:16.918Z,1.52
2022-08-30T09:16:55.779Z,2.22
2022-08-30T09:27:26.377Z,2.17
2022-08-30T09:37:33.321Z,1.60
2022-08-30T09:47:47.112Z,2.55
2022-08-30T09:58:10.787Z,1.17
2022-08-30T10:08:18.941Z,2.72
2022-08-30T10:18:53.746Z,1.30
2022-08-30T10:29:06.738Z,3.08
2022-08-30T10:39:10.887Z,1.30
2022-08-30T10:49:27.838Z,2.15
2022-08-30T10:59:32.232Z,1.83
2022-08-30T11:09:40.264Z,2.45
2022-08-30T11:19:44.750Z,2.50
2022-08-30T11:29:49.842Z,1.45
2022-08-30T11:39:58.467Z,2.05
2022-08-30T11:50:13.588Z,2.05
2022-08-30T12:00:31.538Z,2.00
2022-08-30T12:10:42.629Z,0.98
2022-08-30T12:20:49.548Z,1.10
2022-08-30T12:30:52.027Z,3.42
2022-08-30T12:41:04.900Z,1.98
2022-08-30T12:51:11.072Z,1.58
2022-08-30T13:01:16.339Z,3.47
2022-08-30T13:11:22.755Z,2.60
2022-08-30T13:21:32.273Z,1.52
2022-08-30T13:31:36.472Z,1.30
2022-08-30T13:41:41.617Z,1.75
2022-08-30T13:51:58.246Z,1.65
2022-08-30T14:02:12.786Z,1.20
2022-08-30T14:12:15.644Z,2.53
2022-08-30T14:22:20.876Z,1.30
2022-08-30T14:32:30.122Z,1.83
2022-08-30T14:42:33.368Z,1.35
2022-08-30T14:52:37.687Z,2.72
2022-08-30T15:02:43.622Z,2.50
2022-08-30T15:12:53.804Z,2.13
2022-08-30T15:23:00.246Z,0.77
2022-08-30T15:33:14.074Z,1.35
2022-08-30T15:43:19.968Z,2.05
2022-08-30T15:53:29.408Z,2.10
2022-08-30T16:03:55.120Z,4.25
2022-08-30T16:14:02.617Z,1.60
2022-08-30T16:24:10.408Z,5.28
2022-08-30T16:34:14.696Z,3.45
2022-08-30T16:44:21.293Z,3.75
2022-08-30T16:54:23.879Z,4.78
2022-08-30T17:04:28.426Z,3.65
2022-08-30T17:14:33.611Z,2.13
2022-08-30T17:24:38.844Z,4.40
2022-08-30T17:34:46.378Z,2.75
2022-08-30T17:44:51.580Z,3.25
2022-08-30T17:54:53.898Z,2.47
2022-08-30T18:04:59.193Z,3.85
2022-08-30T18:15:12.185Z,2.67
2022-08-30T18:25:14.992Z,1.25
2022-08-30T18:35:20.402Z,2.05
2022-08-30T18:45:24.477Z,0.85
2022-08-30T18:55:33.913Z,2.67
2022-08-30T19:05:35.994Z,1.50
2022-08-30T19:15:39.092Z,2.05
2022-08-30T19:25:42.323Z,4.40
2022-08-30T19:35:51.469Z,3.67
2022-08-30T19:45:58.214Z,2.92
2022-08-30T19:56:06.354Z,2.50
2022-08-30T20:06:16.885Z,3.78
2022-08-30T20:16:37.469Z,4.72
2022-08-30T20:26:43.729Z,2.38
2022-08-30T20:36:47.950Z,2.67
2022-08-30T20:46:50.959Z,3.20
2022-08-30T20:56:53.194Z,3.15
2022-08-30T21:06:55.249Z,4.57
2022-08-30T21:16:57.457Z,10.57
2022-08-30T21:27:03.004Z,2.83
2022-08-30T21:37:05.356Z,2.53
2022-08-30T21:47:07.448Z,3.95
2022-08-30T21:57:11.816Z,22.52
2022-08-30T22:07:14.375Z,3.05
2022-08-30T22:17:16.581Z,4.05
2022-08-30T22:27:24.766Z,2.35
2022-08-30T22:37:31.871Z,3.42
2022-08-30T22:47:34.566Z,2.00
2022-08-30T22:57:43.011Z,3.58
2022-08-30T23:07:45.576Z,1.90
2022-08-30T23:17:50.655Z,3.30
2022-08-30T23:28:17.489Z,3.40
2022-08-30T23:38:44.179Z,4.30
2022-08-30T23:49:07.201Z,5.32
2022-08-30T23:59:30.221Z,2.75
